createdAt,value
2022-10-17T00:00:16.931Z,1.75
2022-10-17T00:02:43.500Z,1.60
2022-10-17T00:05:11.860Z,1.55
2022-10-17T00:07:39.094Z,1.30
2022-10-17T00:10:07.373Z,1.17
2022-10-17T00:12:35.205Z,1.33
2022-10-17T00:15:04.744Z,1.45
2022-10-17T00:17:31.391Z,1.88
2022-10-17T00:20:01.702Z,1.30
2022-10-17T00:22:28.554Z,1.75
2022-10-17T00:24:55.151Z,1.60
2022-10-17T00:27:21.798Z,1.30
2022-10-17T00:29:52.466Z,1.60
2022-10-17T00:32:19.650Z,1.10
2022-10-17T00:34:46.809Z,1.50
2022-10-17T00:37:13.413Z,1.60
2022-10-17T00:39:39.944Z,1.48
2022-10-17T00:42:06.654Z,1.30
2022-10-17T00:44:33.138Z,1.25
2022-10-17T00:47:03.882Z,1.38
2022-10-17T00:49:34.467Z,1.48
2022-10-17T00:52:06.131Z,1.20
2022-10-17T00:54:35.518Z,1.15
2022-10-17T00:57:02.445Z,1.30
2022-10-17T00:59:32.387Z,1.05
2022-10-17T01:02:04.937Z,1.30
2022-10-17T01:04:32.056Z,1.13
2022-10-17T01:06:58.792Z,1.38
2022-10-17T01:09:27.339Z,1.08
2022-10-17T01:12:06.427Z,1.30
2022-10-17T01:14:52.264Z,1.30
2022-10-17T01:17:24.838Z,1.67
2022-10-17T01:20:12.921Z,1.48
2022-10-17T01:23:06.842Z,1.20
2022-10-17T01:25:57.708Z,1.55
2022-10-17T01:28:48.740Z,1.50
2022-10-17T01:31:20.051Z,1.55
2022-10-17T01:34:27.836Z,1.58
2022-10-17T01:37:04.461Z,1.67
2022-10-17T01:39:41.641Z,2.00
2022-10-17T01:42:24.363Z,2.00
2022-10-17T01:45:25.614Z,2.00
2022-10-17T01:47:54.581Z,2.03
2022-10-17T01:50:28.281Z,1.98
2022-10-17T01:53:19.815Z,2.00
2022-10-17T01:55:49.846Z,2.38
2022-10-17T01:58:23.226Z,2.50
2022-10-17T02:00:51.642Z,1.98
2022-10-17T02:03:21.198Z,2.42
2022-10-17T02:05:48.301Z,2.10
2022-10-17T02:08:25.612Z,2.38
2022-10-17T02:11:09.977Z,2.05
2022-10-17T02:14:01.165Z,2.40
2022-10-17T02:16:50.597Z,2.40
2022-10-17T02:19:22.866Z,2.70
2022-10-17T02:22:20.918Z,2.88
2022-10-17T02:24:52.651Z,2.10
2022-10-17T02:27:40.104Z,2.65
2022-10-17T02:30:23.595Z,2.45
2022-10-17T02:32:55.870Z,2.63
2022-10-17T02:35:25.407Z,2.45
2022-10-17T02:37:53.493Z,3.03
2022-10-17T02:40:22.942Z,2.80
2022-10-17T02:42:51.428Z,2.70
2022-10-17T02:45:19.443Z,2.78
2022-10-17T02:47:59.747Z,2.90
2022-10-17T02:51:01.692Z,2.97
2022-10-17T02:53:55.668Z,2.42
2022-10-17T02:56:24.853Z,3.08
2022-10-17T02:58:57.695Z,3.00
2022-10-17T03:01:25.045Z,2.95
2022-10-17T03:03:51.718Z,2.60
2022-10-17T03:06:18.284Z,2.75
2022-10-17T03:08:44.870Z,2.75
2022-10-17T03:11:11.442Z,2.70
2022-10-17T03:13:39.860Z,2.75
2022-10-17T03:16:06.837Z,2.67
2022-10-17T03:18:33.415Z,3.10
2022-10-17T03:20:59.970Z,2.83
2022-10-17T03:23:26.532Z,3.15
2022-10-17T03:25:53.053Z,2.78
2022-10-17T03:28:19.586Z,3.25
2022-10-17T03:30:46.198Z,2.95
2022-10-17T03:33:12.735Z,2.72
2022-10-17T03:35:42.880Z,3.05
2022-10-17T03:38:09.522Z,2.67
2022-10-17T03:40:36.101Z,2.90
2022-10-17T03:43:02.622Z,2.95
2022-10-17T03:45:29.226Z,2.72
2022-10-17T03:47:55.743Z,3.00
2022-10-17T03:50:22.292Z,2.58
2022-10-17T03:52:49.393Z,2.75
2022-10-17T03:55:16.924Z,3.10
2022-10-17T03:57:45.479Z,3.00
2022-10-17T04:00:12.915Z,2.63
2022-10-17T04:02:39.444Z,2.95
2022-10-17T04:05:06.632Z,3.08
2022-10-17T04:07:33.162Z,2.92
2022-10-17T04:09:59.743Z,3.10
2022-10-17T04:12:26.406Z,2.97
2022-10-17T04:14:53.257Z,2.88
2022-10-17T04:17:19.772Z,3.30
2022-10-17T04:19:46.407Z,2.92
2022-10-17T04:22:13.373Z,3.63
2022-10-17T04:24:39.918Z,3.50
2022-10-17T04:27:06.820Z,3.13
2022-10-17T04:29:33.530Z,2.70
2022-10-17T04:32:00.310Z,3.03
2022-10-17T04:34:26.936Z,2.75
2022-10-17T04:36:53.483Z,3.05
2022-10-17T04:39:20.155Z,2.97
2022-10-17T04:41:46.727Z,3.28
2022-10-17T04:44:13.340Z,2.90
2022-10-17T04:46:40.025Z,3.55
2022-10-17T04:49:06.637Z,3.03
2022-10-17T04:51:33.171Z,3.03
2022-10-17T04:53:59.799Z,3.28
2022-10-17T04:56:26.385Z,3.20
2022-10-17T04:58:53.001Z,3.13
2022-10-17T05:01:23.769Z,3.63
2022-10-17T05:03:50.358Z,3.42
2022-10-17T05:06:19.780Z,3.30
2022-10-17T05:08:46.857Z,3.10
2022-10-17T05:11:23.093Z,3.25
2022-10-17T05:14:00.346Z,3.15
2022-10-17T05:16:28.142Z,3.22
2022-10-17T05:18:56.697Z,3.13
2022-10-17T05:21:25.471Z,3.33
2022-10-17T05:23:52.650Z,3.17
2022-10-17T05:26:19.676Z,3.17
2022-10-17T05:28:46.433Z,3.17
2022-10-17T05:31:13.829Z,2.92
2022-10-17T05:33:40.507Z,3.05
2022-10-17T05:36:08.200Z,3.53
2022-10-17T05:38:35.131Z,2.90
2022-10-17T05:41:04.500Z,3.13
2022-10-17T05:43:32.062Z,3.08
2022-10-17T05:45:58.765Z,3.60
2022-10-17T05:48:25.458Z,3.33
2022-10-17T05:50:59.387Z,3.35
2022-10-17T05:53:26.054Z,4.15
2022-10-17T05:56:00.439Z,3.30
2022-10-17T06:01:14.699Z,3.15
2022-10-17T06:03:41.267Z,3.53
2022-10-17T06:06:10.455Z,3.40
2022-10-17T06:08:37.436Z,2.97
2022-10-17T06:11:07.496Z,3.20
2022-10-17T06:13:36.652Z,3.30
2022-10-17T06:16:03.242Z,3.20
2022-10-17T06:18:29.959Z,3.65
2022-10-17T06:21:05.911Z,3.22
2022-10-17T06:23:32.914Z,3.47
2022-10-17T06:26:01.142Z,3.00
2022-10-17T06:28:28.037Z,2.88
2022-10-17T06:30:55.181Z,3.28
2022-10-17T06:33:23.301Z,4.05
2022-10-17T06:35:56.481Z,3.28
2022-10-17T06:38:23.463Z,3.47
2022-10-17T06:40:50.140Z,3.13
2022-10-17T06:43:16.799Z,3.20
2022-10-17T06:45:45.718Z,3.20
2022-10-17T06:48:12.291Z,3.63
2022-10-17T06:50:38.927Z,3.30
2022-10-17T06:53:05.482Z,3.15
2022-10-17T06:55:32.660Z,3.20
2022-10-17T06:57:59.211Z,2.83
2022-10-17T07:00:26.915Z,3.50
2022-10-17T07:02:53.492Z,3.47
2022-10-17T07:05:20.128Z,2.85
2022-10-17T07:07:48.537Z,2.95
2022-10-17T07:10:18.383Z,2.83
2022-10-17T07:12:45.905Z,3.22
2022-10-17T07:15:12.678Z,3.00
2022-10-17T07:17:39.557Z,3.05
2022-10-17T07:20:06.694Z,3.83
2022-10-17T07:22:33.312Z,3.13
2022-10-17T07:24:59.872Z,3.33
2022-10-17T07:27:26.585Z,3.15
2022-10-17T07:29:53.295Z,3.25
2022-10-17T07:32:19.881Z,3.00
2022-10-17T07:34:46.413Z,3.20
2022-10-17T07:37:13.493Z,3.17
2022-10-17T07:39:40.116Z,3.13
2022-10-17T07:42:07.786Z,3.47
2022-10-17T07:44:35.589Z,2.97
2022-10-17T07:47:02.489Z,3.25
2022-10-17T07:49:29.346Z,8.00
2022-10-17T07:51:56.002Z,3.70
2022-10-17T07:54:22.747Z,3.40
2022-10-17T07:56:50.795Z,3.10
2022-10-17T07:59:20.545Z,3.08
2022-10-17T08:01:47.133Z,3.22
2022-10-17T08:04:13.780Z,3.25
2022-10-17T08:06:40.365Z,3.40
2022-10-17T08:09:07.002Z,3.20
2022-10-17T08:11:33.698Z,3.30
2022-10-17T08:14:00.276Z,3.60
2022-10-17T08:16:26.875Z,3.25
2022-10-17T08:18:53.909Z,3.55
2022-10-17T08:21:20.582Z,3.70
2022-10-17T08:23:47.119Z,3.45
2022-10-17T08:26:17.304Z,3.50
2022-10-17T08:28:44.379Z,3.67
2022-10-17T08:31:13.680Z,3.20
2022-10-17T08:33:41.520Z,3.22
2022-10-17T08:36:09.051Z,3.60
2022-10-17T08:38:38.339Z,3.63
2022-10-17T08:41:45.738Z,4.60
2022-10-17T08:44:33.439Z,3.53
2022-10-17T08:47:04.400Z,3.75
2022-10-17T08:49:47.021Z,7.25
2022-10-17T08:52:35.247Z,4.03
2022-10-17T08:55:01.965Z,2.88
2022-10-17T08:57:29.335Z,2.97
2022-10-17T08:59:57.014Z,3.67
2022-10-17T09:02:54.476Z,3.15
2022-10-17T09:05:30.547Z,3.25
2022-10-17T09:08:06.355Z,3.63
2022-10-17T09:10:47.420Z,3.55
2022-10-17T09:13:25.486Z,3.47
2022-10-17T09:15:58.019Z,3.60
2022-10-17T09:18:31.869Z,3.42
2022-10-17T09:21:19.681Z,3.13
2022-10-17T09:24:03.969Z,3.35
2022-10-17T09:26:39.233Z,3.58
2022-10-17T09:29:17.708Z,3.85
2022-10-17T09:31:51.243Z,3.28
2022-10-17T09:34:18.040Z,3.53
2022-10-17T09:36:44.637Z,3.10
2022-10-17T09:39:18.825Z,3.72
2022-10-17T09:41:57.037Z,3.03
2022-10-17T09:44:31.267Z,3.42
2022-10-17T09:47:26.438Z,3.30
2022-10-17T09:49:53.038Z,3.40
2022-10-17T09:52:27.518Z,3.45
2022-10-17T09:54:59.282Z,3.20
2022-10-17T09:57:26.434Z,3.25
2022-10-17T10:00:01.887Z,3.58
2022-10-17T10:02:31.437Z,3.65
2022-10-17T10:05:16.306Z,3.55
2022-10-17T10:07:45.749Z,3.33
2022-10-17T10:10:28.125Z,3.42
2022-10-17T10:13:18.178Z,3.80
2022-10-17T10:15:47.784Z,3.85
2022-10-17T10:18:26.685Z,3.58
2022-10-17T10:21:16.330Z,3.60
2022-10-17T10:23:45.328Z,3.65
2022-10-17T10:26:21.584Z,3.72
2022-10-17T10:28:56.254Z,3.50
2022-10-17T10:31:40.918Z,3.70
2022-10-17T10:34:19.388Z,3.33
2022-10-17T10:36:55.221Z,3.90
2022-10-17T10:39:43.786Z,3.67
2022-10-17T10:42:30.073Z,3.45
2022-10-17T10:45:48.001Z,3.38
2022-10-17T10:48:21.378Z,3.42
2022-10-17T10:50:47.831Z,3.90
2022-10-17T10:53:36.228Z,4.28
2022-10-17T10:56:21.632Z,3.83
2022-10-17T10:59:03.430Z,3.72
2022-10-17T11:01:41.487Z,3.72
2022-10-17T11:04:45.836Z,3.80
2022-10-17T11:07:30.630Z,3.60
2022-10-17T11:10:00.318Z,3.50
2022-10-17T11:13:00.614Z,4.25
2022-10-17T11:15:52.628Z,3.97
2022-10-17T11:18:27.765Z,3.35
2022-10-17T11:21:00.270Z,4.07
2022-10-17T11:23:42.726Z,3.20
2022-10-17T11:26:26.055Z,3.83
2022-10-17T11:28:54.478Z,3.95
2022-10-17T11:31:24.048Z,3.95
2022-10-17T11:34:15.006Z,3.88
2022-10-17T11:36:44.707Z,4.10
2022-10-17T11:39:14.048Z,3.72
2022-10-17T11:41:54.172Z,3.92
2022-10-17T11:44:36.229Z,3.88
2022-10-17T11:47:24.200Z,3.65
2022-10-17T11:53:13.293Z,3.50
2022-10-17T11:55:41.101Z,3.70
2022-10-17T11:58:26.783Z,3.80
2022-10-17T12:00:53.309Z,4.22
2022-10-17T12:03:19.819Z,4.00
2022-10-17T12:05:58.177Z,3.80
2022-10-17T12:08:30.614Z,4.18
2022-10-17T12:11:20.987Z,3.97
2022-10-17T12:13:49.998Z,3.65
2022-10-17T12:16:19.813Z,3.45
2022-10-17T12:19:10.620Z,3.80
2022-10-17T12:21:57.258Z,4.57
2022-10-17T12:24:35.835Z,3.85
2022-10-17T12:27:22.141Z,4.03
2022-10-17T12:29:49.192Z,3.70
2022-10-17T12:32:15.892Z,3.80
2022-10-17T12:34:54.050Z,4.00
2022-10-17T12:37:45.368Z,3.58
2022-10-17T12:40:36.867Z,3.88
2022-10-17T12:43:15.847Z,4.13
2022-10-17T12:45:56.279Z,4.03
2022-10-17T12:48:38.330Z,4.28
2022-10-17T12:51:34.693Z,3.95
2022-10-17T12:53:59.512Z,3.67
2022-10-17T12:56:32.062Z,3.65
2022-10-17T12:58:59.260Z,3.70
2022-10-17T13:01:31.016Z,3.67
2022-10-17T13:04:02.687Z,4.10
2022-10-17T13:06:31.518Z,3.80
2022-10-17T13:09:05.630Z,3.78
2022-10-17T13:11:34.969Z,4.03
2022-10-17T13:14:09.220Z,4.20
2022-10-17T13:16:38.996Z,4.32
2022-10-17T13:19:17.624Z,3.90
2022-10-17T13:22:06.432Z,3.50
2022-10-17T13:24:39.388Z,4.35
2022-10-17T13:27:21.303Z,4.30
2022-10-17T13:29:47.875Z,4.25
2022-10-17T13:32:14.391Z,4.10
2022-10-17T13:34:40.995Z,4.32
2022-10-17T13:37:13.753Z,4.28
2022-10-17T13:40:00.256Z,4.78
2022-10-17T13:42:40.588Z,4.82
2022-10-17T13:45:19.483Z,4.25
2022-10-17T13:47:46.274Z,4.55
2022-10-17T13:50:43.186Z,4.40
2022-10-17T13:53:18.599Z,4.43
2022-10-17T13:56:22.915Z,4.00
2022-10-17T13:58:49.449Z,4.05
2022-10-17T14:01:17.596Z,3.85
2022-10-17T14:03:48.646Z,4.07
2022-10-17T14:06:15.642Z,4.85
2022-10-17T14:08:54.181Z,4.05
2022-10-17T14:11:30.935Z,4.40
2022-10-17T14:13:59.008Z,4.22
2022-10-17T14:16:27.712Z,4.28
2022-10-17T14:18:55.620Z,4.53
2022-10-17T14:21:42.970Z,4.45
2022-10-17T14:24:37.068Z,4.75
2022-10-17T14:27:03.668Z,4.35
2022-10-17T14:29:32.910Z,4.50
2022-10-17T14:32:10.503Z,4.10
2022-10-17T14:34:40.692Z,4.55
2022-10-17T14:37:22.476Z,3.72
2022-10-17T14:39:51.088Z,4.45
2022-10-17T14:42:20.606Z,4.50
2022-10-17T14:44:50.814Z,4.53
2022-10-17T14:47:42.156Z,4.47
2022-10-17T14:50:20.341Z,4.22
2022-10-17T14:53:06.775Z,4.32
2022-10-17T14:55:35.986Z,4.65
2022-10-17T14:58:16.620Z,4.93
2022-10-17T15:00:43.176Z,4.38
2022-10-17T15:03:09.710Z,4.82
2022-10-17T15:05:36.333Z,4.95
2022-10-17T15:08:02.886Z,5.03
2022-10-17T15:10:35.808Z,4.88
2022-10-17T15:13:27.044Z,5.00
2022-10-17T15:15:52.249Z,5.43
2022-10-17T15:18:19.523Z,5.03
2022-10-17T15:20:46.122Z,4.93
2022-10-17T15:23:12.722Z,5.40
2022-10-17T15:25:39.829Z,6.00
2022-10-17T15:28:06.359Z,5.28
2022-10-17T15:30:36.420Z,5.18
2022-10-17T15:33:03.103Z,5.28
2022-10-17T15:35:30.397Z,5.60
2022-10-17T15:37:57.012Z,5.38
2022-10-17T15:40:29.259Z,5.30
2022-10-17T15:42:56.467Z,5.75
2022-10-17T15:45:23.709Z,5.75
2022-10-17T15:47:57.024Z,4.90
2022-10-17T15:50:23.582Z,5.10
2022-10-17T15:52:53.183Z,5.72
2022-10-17T15:55:19.996Z,5.63
2022-10-17T15:57:47.944Z,5.15
2022-10-17T16:00:23.825Z,6.13
2022-10-17T16:02:51.028Z,5.97
2022-10-17T16:05:25.761Z,5.55
2022-10-17T16:07:56.849Z,5.75
2022-10-17T16:10:26.598Z,5.53
2022-10-17T16:12:53.942Z,6.20
2022-10-17T16:15:24.029Z,6.20
2022-10-17T16:17:56.800Z,5.80
2022-10-17T16:20:25.675Z,6.43
2022-10-17T16:22:56.322Z,6.15
2022-10-17T16:25:27.026Z,6.43
2022-10-17T16:27:57.538Z,6.88
2022-10-17T16:30:27.158Z,6.07
2022-10-17T16:32:55.179Z,6.75
2022-10-17T16:35:25.356Z,6.38
2022-10-17T16:37:52.241Z,6.53
2022-10-17T16:40:19.544Z,6.43
2022-10-17T16:42:46.658Z,5.70
2022-10-17T16:45:22.313Z,6.15
2022-10-17T16:47:50.830Z,5.22
2022-10-17T16:50:18.056Z,5.75
2022-10-17T16:52:44.891Z,5.82
2022-10-17T16:55:12.092Z,5.53
2022-10-17T16:57:39.173Z,5.78
2022-10-17T17:00:07.738Z,6.80
2022-10-17T17:02:35.000Z,7.15
2022-10-17T17:05:01.685Z,6.22
2022-10-17T17:07:29.902Z,6.25
2022-10-17T17:09:56.919Z,6.72
2022-10-17T17:12:23.763Z,6.20
2022-10-17T17:14:50.335Z,6.07
2022-10-17T17:17:30.137Z,6.28
2022-10-17T17:20:04.045Z,6.50
2022-10-17T17:22:30.608Z,6.25
2022-10-17T17:24:57.220Z,6.90
2022-10-17T17:27:25.192Z,7.13
2022-10-17T17:29:51.782Z,6.63
2022-10-17T17:32:18.294Z,7.10
2022-10-17T17:34:44.843Z,6.20
2022-10-17T17:37:11.543Z,6.10
2022-10-17T17:39:38.330Z,6.95
2022-10-17T17:42:04.971Z,7.15
2022-10-17T17:44:32.028Z,7.15
2022-10-17T17:46:58.746Z,6.47
2022-10-17T17:49:25.286Z,6.97
2022-10-17T17:51:51.868Z,7.32
2022-10-17T17:54:18.444Z,7.53
2022-10-17T17:56:45.004Z,6.57
2022-10-17T17:59:13.070Z,7.40
2022-10-17T18:01:39.829Z,7.57
2022-10-17T18:04:08.813Z,7.55
2022-10-17T18:06:37.424Z,6.95
2022-10-17T18:09:05.755Z,7.00
2022-10-17T18:11:32.915Z,7.03
2022-10-17T18:14:02.293Z,7.25
2022-10-17T18:16:31.221Z,7.50
2022-10-17T18:19:03.985Z,7.28
2022-10-17T18:21:33.452Z,7.95
2022-10-17T18:24:00.309Z,8.05
2022-10-17T18:26:27.849Z,7.72
2022-10-17T18:28:54.409Z,8.27
2022-10-17T18:31:24.372Z,7.82
2022-10-17T18:33:53.018Z,8.20
2022-10-17T18:36:21.188Z,7.90
2022-10-17T18:38:48.449Z,8.63
2022-10-17T18:41:17.216Z,8.40
2022-10-17T18:43:45.778Z,8.90
2022-10-17T18:46:16.260Z,8.05
2022-10-17T18:48:44.630Z,8.55
2022-10-17T18:51:12.290Z,9.32
2022-10-17T18:53:45.696Z,8.73
2022-10-17T18:56:13.197Z,8.80
2022-10-17T18:58:40.948Z,9.23
2022-10-17T19:01:12.161Z,9.68
2022-10-17T19:03:38.692Z,9.38
2022-10-17T19:06:07.524Z,9.23
2022-10-17T19:08:35.664Z,9.60
2022-10-17T19:11:10.169Z,9.90
2022-10-17T19:13:36.877Z,10.35
2022-10-17T19:16:08.221Z,10.55
2022-10-17T19:18:35.943Z,10.13
2022-10-17T19:21:09.284Z,10.35
2022-10-17T19:23:36.779Z,9.18
2022-10-17T19:26:11.417Z,10.80
2022-10-17T19:28:39.728Z,10.18
2022-10-17T19:31:06.835Z,10.95
2022-10-17T19:33:34.442Z,10.70
2022-10-17T19:36:04.279Z,10.98
2022-10-17T19:38:31.230Z,10.60
2022-10-17T19:40:57.808Z,11.05
2022-10-17T19:43:24.367Z,12.00
2022-10-17T19:45:59.637Z,11.18
2022-10-17T19:48:27.263Z,11.93
2022-10-17T19:50:54.714Z,12.23
2022-10-17T19:53:23.985Z,12.43
2022-10-17T19:55:51.343Z,11.98
2022-10-17T19:58:17.838Z,11.80
2022-10-17T20:00:52.508Z,11.68
2022-10-17T20:03:19.770Z,10.82
2022-10-17T20:05:47.147Z,12.40
2022-10-17T20:08:14.910Z,11.27
2022-10-17T20:10:42.169Z,11.63
2022-10-17T20:13:09.039Z,12.55
2022-10-17T20:15:36.254Z,12.05
2022-10-17T20:18:04.065Z,11.57
2022-10-17T20:20:30.698Z,11.57
2022-10-17T20:22:57.412Z,11.60
2022-10-17T20:25:24.429Z,11.30
2022-10-17T20:27:51.009Z,11.98
2022-10-17T20:30:17.614Z,11.25
2022-10-17T20:32:44.147Z,11.25
2022-10-17T20:35:10.940Z,11.50
2022-10-17T20:37:41.584Z,10.60
2022-10-17T20:40:34.162Z,11.80
2022-10-17T20:42:56.450Z,11.23
2022-10-17T20:45:37.455Z,11.25
2022-10-17T20:48:15.577Z,11.88
2022-10-17T20:50:43.346Z,11.13
2022-10-17T20:53:35.621Z,12.43
2022-10-17T20:56:08.784Z,12.85
2022-10-17T20:58:36.014Z,12.25
2022-10-17T21:01:10.519Z,12.50
2022-10-17T21:03:41.159Z,12.05
2022-10-17T21:06:11.425Z,12.45
2022-10-17T21:08:38.189Z,11.40
2022-10-17T21:11:13.279Z,13.13
2022-10-17T21:13:40.240Z,13.23
2022-10-17T21:16:12.047Z,13.55
2022-10-17T21:18:39.304Z,12.95
2022-10-17T21:21:24.864Z,13.57
2022-10-17T21:23:52.880Z,14.82
2022-10-17T21:26:20.767Z,14.63
2022-10-17T21:28:48.749Z,14.07
2022-10-17T21:31:24.206Z,13.75
2022-10-17T21:33:53.528Z,14.13
2022-10-17T21:36:20.857Z,14.57
2022-10-17T21:38:49.004Z,15.05
2022-10-17T21:41:19.462Z,14.18
2022-10-17T21:43:46.532Z,14.45
2022-10-17T21:46:16.158Z,13.93
2022-10-17T21:48:43.864Z,14.45
2022-10-17T21:51:13.672Z,15.15
2022-10-17T21:53:40.910Z,14.43
2022-10-17T21:56:12.470Z,14.90
2022-10-17T21:58:39.422Z,15.00
2022-10-17T22:01:13.669Z,15.02
2022-10-17T22:03:45.854Z,15.77
2022-10-17T22:06:38.808Z,15.15
2022-10-17T22:09:04.605Z,15.13
2022-10-17T22:11:33.943Z,15.18
2022-10-17T22:14:15.295Z,16.35
2022-10-17T22:16:44.350Z,15.18
2022-10-17T22:19:12.709Z,14.77
2022-10-17T22:21:40.040Z,14.85
2022-10-17T22:24:10.979Z,15.25
2022-10-17T22:26:38.827Z,13.75
2022-10-17T22:29:07.126Z,15.02
2022-10-17T22:31:34.486Z,15.05
2022-10-17T22:34:01.076Z,16.02
2022-10-17T22:36:27.753Z,15.52
2022-10-17T22:38:54.518Z,17.60
2022-10-17T22:41:21.167Z,15.98
2022-10-17T22:43:47.705Z,16.35
2022-10-17T22:46:17.125Z,16.15
2022-10-17T22:48:43.922Z,16.13
2022-10-17T22:51:11.096Z,16.77
2022-10-17T22:53:38.089Z,16.67
2022-10-17T22:56:14.346Z,16.42
2022-10-17T22:58:41.167Z,16.60
2022-10-17T23:01:10.481Z,17.63
2022-10-17T23:03:37.077Z,15.95
2022-10-17T23:06:04.351Z,15.23
2022-10-17T23:08:31.099Z,16.08
2022-10-17T23:10:58.141Z,15.02
2022-10-17T23:13:24.765Z,16.05
2022-10-17T23:15:53.182Z,16.38
2022-10-17T23:18:20.858Z,15.88
2022-10-17T23:20:47.985Z,16.10
2022-10-17T23:23:15.365Z,16.23
2022-10-17T23:25:42.425Z,16.25
2022-10-17T23:28:09.325Z,17.35
2022-10-17T23:30:37.401Z,16.23
2022-10-17T23:33:04.590Z,16.88
2022-10-17T23:35:31.681Z,17.30
2022-10-17T23:37:58.348Z,17.17
2022-10-17T23:40:25.077Z,15.93
2022-10-17T23:42:51.610Z,17.25
2022-10-17T23:45:19.343Z,16.55
2022-10-17T23:47:46.077Z,17.77
2022-10-17T23:50:14.084Z,17.80
2022-10-17T23:52:40.753Z,17.88
2022-10-17T23:55:08.489Z,17.25
2022-10-17T23:57:35.403Z,17.70
